This is the latest recevied weather packets stored in our database for station/object AD7ZD. If no packets are shown the sender has not sent any weather packets the latest 10 day(s).
| Time | Temp. | Humidity | Pressure | Rain* | Wind** | Luminosity | Snow |
|---|---|---|---|---|---|---|---|
| 1777768901 | 20° C | 31% | 1010.5 hPa | 0 mm | - | 120 W/m² | - |
| 1777768597 | 20° C | 31% | 1010.6 hPa | 0 mm | - | 64 W/m² | - |
| 1777768294 | 20.56° C | 28% | 1010.5 hPa | 0 mm | - | 49 W/m² | - |
| 1777767991 | 20.56° C | 28% | 1010.4 hPa | 0 mm | - | 56 W/m² | - |
| 1777767688 | 20.56° C | 28% | 1010.9 hPa | 0 mm | - | 60 W/m² | - |
| 1777767384 | 20.56° C | 29% | 1011.1 hPa | 0 mm | - | 42 W/m² | - |
| 1777767081 | 20.56° C | 28% | 1010.9 hPa | 0 mm | - | 35 W/m² | - |
| 1777766778 | 20.56° C | 28% | 1010.6 hPa | 0 mm | - | 51 W/m² | - |
| 1777766475 | 20.56° C | 28% | 1010.6 hPa | 0 mm | - | 70 W/m² | - |
| 1777766172 | 20.56° C | 29% | 1010.6 hPa | 0 mm | - | 89 W/m² | - |
| 1777765870 | 20.56° C | 29% | 1010.6 hPa | 0 mm | - | 110 W/m² | - |
| 1777765565 | 21.11° C | 27% | 1010.6 hPa | 0 mm | - | 103 W/m² | - |
| 1777765264 | 21.11° C | 27% | 1010.5 hPa | 0 mm | - | 86 W/m² | - |
| 1777764964 | 20.56° C | 27% | 1010.8 hPa | 0 mm | - | 83 W/m² | - |
| 1777764661 | 21.67° C | 25% | 1010.6 hPa | 0 mm | - | 84 W/m² | - |
| 1777764357 | 21.67° C | 25% | 1010.6 hPa | 0 mm | - | 86 W/m² | - |
| 1777764055 | 21.67° C | 25% | 1010.5 hPa | 0 mm | - | 94 W/m² | - |
| 1777763751 | 21.67° C | 24% | 1010.6 hPa | 0 mm | - | 109 W/m² | - |
| 1777763449 | 22.22° C | 24% | 1010.9 hPa | 0 mm | - | 110 W/m² | - |
| 1777763147 | 22.22° C | 24% | 1010.6 hPa | 0 mm | - | 132 W/m² | - |
| 1777762845 | 22.22° C | 24% | 1010.9 hPa | 0 mm | - | 148 W/m² | - |
| 1777762541 | 22.22° C | 23% | 1010.9 hPa | 0 mm | - | 152 W/m² | - |
| 1777762238 | 22.22° C | 23% | 1011 hPa | 0 mm | - | 141 W/m² | - |
| 1777761934 | 21.67° C | 25% | 1011.1 hPa | 0 mm | - | 146 W/m² | - |
| 1777761631 | 21.67° C | 25% | 1011 hPa | 0 mm | - | 172 W/m² | - |
* Rain latest hour (hover to see other rain measurements)
** Current wind speed in m/s (hover to see current wind gust speed)